Google Maps JavaScript API Example
Pilot Flight Report # 92901 Submitted by : AST769 on 2019-04-15
Date: 2019-04-15Aircraft: Boeing 737 MAX8
Flight No.: AST21161Distance (Nm): 1727.23
Departure: KROW - Roswell IndustrialDestination: MUCU - Antonio Maceo Intl
 TimeFuelWeightSpeeds  
Out (Taxi)2050Z36772 lbs168821 lbs Flight RulesIFR
Off (Takeoff)2050Z 168662 lbs143 ktsFlight LevelFL328
On (Landing)0037Z 149112 lbs137 ktsVSTD-162 ft/min
In (Ramp)0037Z17043 lbs149090 lbs ZFW132044 lbs
Flight3.80  -  3:4719548 lbs  Pax0
Block3.78  -  3:4719729 lbs  Cargo0
Departure WeatherKROW 142049Z 34406KT 42SM SKC 22/-3 A2991
Destination WeatherMUCU 140037Z 19806KT 6SM SCT022 27/21 A2997
Flight Comments